Terminal Aerodrome Forecast
Issued by NWS

Home | Current Version | Previous Version | Text Only | Print | Product List | Glossary On
Versions: 1 2 3 4 5 6 7 8 9 10 11 12 13
000
FTUS42 TJSJ 042332
TAFKPK
TAF
TKPK 042332Z 0500/0524 06015KT P6SM FEW018
     FM050300 07011KT P6SM FEW022
     FM051200 08017KT P6SM FEW022
     FM052200 06010KT P6SM SCT020
      AMD NOT SKED 0502/0511=

USA.gov is the U.S. government's official web portal to all federal, state and local government web resources and services.